sensor_id;sensor_type;location;lat;lon;timestamp;P1;durP1;ratioP1;P2;durP2;ratioP2
81685;SDS011;71102;50.960;6.888;2024-03-07T00:02:04;28.13;;;17.85;;
81685;SDS011;71102;50.960;6.888;2024-03-07T00:04:29;28.73;;;18.48;;
81685;SDS011;71102;50.960;6.888;2024-03-07T00:06:55;29.17;;;19.13;;
81685;SDS011;71102;50.960;6.888;2024-03-07T00:09:20;31.93;;;17.87;;
81685;SDS011;71102;50.960;6.888;2024-03-07T00:11:45;29.57;;;18.07;;
81685;SDS011;71102;50.960;6.888;2024-03-07T00:14:10;28.70;;;17.67;;
81685;SDS011;71102;50.960;6.888;2024-03-07T00:16:35;29.63;;;18.57;;
81685;SDS011;71102;50.960;6.888;2024-03-07T00:19:01;29.13;;;18.33;;
81685;SDS011;71102;50.960;6.888;2024-03-07T00:21:26;30.73;;;17.33;;
81685;SDS011;71102;50.960;6.888;2024-03-07T00:23:51;28.30;;;17.53;;
81685;SDS011;71102;50.960;6.888;2024-03-07T00:26:16;27.27;;;17.37;;
81685;SDS011;71102;50.960;6.888;2024-03-07T00:28:41;29.27;;;17.67;;
81685;SDS011;71102;50.960;6.888;2024-03-07T00:31:07;26.63;;;14.53;;
81685;SDS011;71102;50.960;6.888;2024-03-07T00:33:32;31.33;;;18.37;;
81685;SDS011;71102;50.960;6.888;2024-03-07T00:35:57;26.50;;;17.10;;
81685;SDS011;71102;50.960;6.888;2024-03-07T00:38:23;28.70;;;18.60;;
81685;SDS011;71102;50.960;6.888;2024-03-07T00:40:48;26.63;;;18.33;;
81685;SDS011;71102;50.960;6.888;2024-03-07T00:43:13;30.60;;;17.63;;
81685;SDS011;71102;50.960;6.888;2024-03-07T00:45:38;28.00;;;16.77;;
81685;SDS011;71102;50.960;6.888;2024-03-07T00:48:03;29.90;;;16.23;;
81685;SDS011;71102;50.960;6.888;2024-03-07T00:50:29;32.78;;;22.08;;
81685;SDS011;71102;50.960;6.888;2024-03-07T00:52:54;29.83;;;18.83;;
81685;SDS011;71102;50.960;6.888;2024-03-07T00:55:19;30.20;;;16.10;;
81685;SDS011;71102;50.960;6.888;2024-03-07T00:57:44;32.03;;;18.77;;
81685;SDS011;71102;50.960;6.888;2024-03-07T01:00:10;28.40;;;18.80;;
81685;SDS011;71102;50.960;6.888;2024-03-07T01:02:35;27.13;;;16.35;;
81685;SDS011;71102;50.960;6.888;2024-03-07T01:05:00;26.93;;;16.67;;
81685;SDS011;71102;50.960;6.888;2024-03-07T01:07:25;26.80;;;16.43;;
81685;SDS011;71102;50.960;6.888;2024-03-07T01:09:50;30.37;;;16.00;;
81685;SDS011;71102;50.960;6.888;2024-03-07T01:12:16;31.07;;;19.73;;
81685;SDS011;71102;50.960;6.888;2024-03-07T01:14:41;28.60;;;16.03;;
81685;SDS011;71102;50.960;6.888;2024-03-07T01:17:06;27.50;;;17.10;;
81685;SDS011;71102;50.960;6.888;2024-03-07T01:19:31;28.30;;;16.77;;
81685;SDS011;71102;50.960;6.888;2024-03-07T01:21:56;28.40;;;13.97;;
81685;SDS011;71102;50.960;6.888;2024-03-07T01:24:22;27.77;;;16.93;;
81685;SDS011;71102;50.960;6.888;2024-03-07T01:26:47;28.43;;;16.80;;
81685;SDS011;71102;50.960;6.888;2024-03-07T01:29:12;28.57;;;17.30;;
81685;SDS011;71102;50.960;6.888;2024-03-07T01:31:37;29.63;;;16.83;;
81685;SDS011;71102;50.960;6.888;2024-03-07T01:34:02;29.77;;;16.83;;
81685;SDS011;71102;50.960;6.888;2024-03-07T01:36:28;30.63;;;17.93;;
81685;SDS011;71102;50.960;6.888;2024-03-07T01:38:53;31.37;;;21.13;;
81685;SDS011;71102;50.960;6.888;2024-03-07T01:41:18;30.83;;;17.63;;
81685;SDS011;71102;50.960;6.888;2024-03-07T01:43:43;27.20;;;16.63;;
81685;SDS011;71102;50.960;6.888;2024-03-07T01:46:09;27.27;;;16.37;;
81685;SDS011;71102;50.960;6.888;2024-03-07T01:48:34;30.30;;;18.45;;
81685;SDS011;71102;50.960;6.888;2024-03-07T01:50:59;32.77;;;18.73;;
81685;SDS011;71102;50.960;6.888;2024-03-07T01:53:25;30.52;;;17.67;;
81685;SDS011;71102;50.960;6.888;2024-03-07T01:55:50;31.40;;;19.75;;
81685;SDS011;71102;50.960;6.888;2024-03-07T01:58:17;28.65;;;18.90;;
81685;SDS011;71102;50.960;6.888;2024-03-07T02:00:43;32.67;;;17.38;;
81685;SDS011;71102;50.960;6.888;2024-03-07T02:03:08;32.17;;;18.30;;
81685;SDS011;71102;50.960;6.888;2024-03-07T02:05:33;31.87;;;18.70;;
81685;SDS011;71102;50.960;6.888;2024-03-07T02:07:59;33.83;;;20.98;;
81685;SDS011;71102;50.960;6.888;2024-03-07T02:10:24;32.13;;;18.53;;
81685;SDS011;71102;50.960;6.888;2024-03-07T02:12:49;29.47;;;16.53;;
81685;SDS011;71102;50.960;6.888;2024-03-07T02:15:14;35.07;;;17.87;;
81685;SDS011;71102;50.960;6.888;2024-03-07T02:17:40;28.00;;;16.47;;
81685;SDS011;71102;50.960;6.888;2024-03-07T02:20:05;33.42;;;16.98;;
81685;SDS011;71102;50.960;6.888;2024-03-07T02:22:30;32.60;;;17.38;;
81685;SDS011;71102;50.960;6.888;2024-03-07T02:24:56;29.10;;;16.97;;
81685;SDS011;71102;50.960;6.888;2024-03-07T02:27:21;31.23;;;16.93;;
81685;SDS011;71102;50.960;6.888;2024-03-07T02:29:46;37.43;;;18.83;;
81685;SDS011;71102;50.960;6.888;2024-03-07T02:32:11;29.35;;;14.02;;
81685;SDS011;71102;50.960;6.888;2024-03-07T02:34:37;28.50;;;16.23;;
81685;SDS011;71102;50.960;6.888;2024-03-07T02:37:02;30.20;;;17.67;;
81685;SDS011;71102;50.960;6.888;2024-03-07T02:39:27;27.53;;;17.20;;
81685;SDS011;71102;50.960;6.888;2024-03-07T02:41:52;25.03;;;15.77;;
81685;SDS011;71102;50.960;6.888;2024-03-07T02:44:18;27.92;;;16.80;;
81685;SDS011;71102;50.960;6.888;2024-03-07T02:46:43;28.13;;;15.88;;
81685;SDS011;71102;50.960;6.888;2024-03-07T02:49:08;27.30;;;17.30;;
81685;SDS011;71102;50.960;6.888;2024-03-07T02:51:33;30.20;;;15.13;;
81685;SDS011;71102;50.960;6.888;2024-03-07T02:53:59;31.13;;;17.13;;
81685;SDS011;71102;50.960;6.888;2024-03-07T02:56:24;30.47;;;17.33;;
81685;SDS011;71102;50.960;6.888;2024-03-07T02:58:49;30.15;;;15.02;;
81685;SDS011;71102;50.960;6.888;2024-03-07T03:01:14;29.50;;;18.23;;
81685;SDS011;71102;50.960;6.888;2024-03-07T03:03:40;30.90;;;16.50;;
81685;SDS011;71102;50.960;6.888;2024-03-07T03:06:05;29.27;;;15.23;;
81685;SDS011;71102;50.960;6.888;2024-03-07T03:08:30;29.77;;;18.17;;
81685;SDS011;71102;50.960;6.888;2024-03-07T03:10:55;31.70;;;16.60;;
81685;SDS011;71102;50.960;6.888;2024-03-07T03:13:21;28.00;;;16.03;;
81685;SDS011;71102;50.960;6.888;2024-03-07T03:15:46;28.40;;;16.33;;
81685;SDS011;71102;50.960;6.888;2024-03-07T03:18:11;28.93;;;17.07;;
81685;SDS011;71102;50.960;6.888;2024-03-07T03:20:36;26.50;;;14.63;;
81685;SDS011;71102;50.960;6.888;2024-03-07T03:23:03;26.85;;;14.40;;
81685;SDS011;71102;50.960;6.888;2024-03-07T03:25:28;25.17;;;14.50;;
81685;SDS011;71102;50.960;6.888;2024-03-07T03:27:53;26.50;;;16.07;;
81685;SDS011;71102;50.960;6.888;2024-03-07T03:30:19;26.93;;;14.13;;
81685;SDS011;71102;50.960;6.888;2024-03-07T03:32:45;29.33;;;15.53;;
81685;SDS011;71102;50.960;6.888;2024-03-07T03:35:10;29.75;;;15.75;;
81685;SDS011;71102;50.960;6.888;2024-03-07T03:37:35;28.97;;;16.77;;
81685;SDS011;71102;50.960;6.888;2024-03-07T03:40:00;26.33;;;15.43;;
81685;SDS011;71102;50.960;6.888;2024-03-07T03:42:25;23.93;;;15.07;;
81685;SDS011;71102;50.960;6.888;2024-03-07T03:44:51;27.00;;;16.30;;
81685;SDS011;71102;50.960;6.888;2024-03-07T03:47:16;28.43;;;16.57;;
81685;SDS011;71102;50.960;6.888;2024-03-07T03:49:41;29.23;;;16.07;;
81685;SDS011;71102;50.960;6.888;2024-03-07T03:52:06;30.43;;;16.50;;
81685;SDS011;71102;50.960;6.888;2024-03-07T03:54:31;30.07;;;16.00;;
81685;SDS011;71102;50.960;6.888;2024-03-07T03:56:57;27.37;;;15.40;;
81685;SDS011;71102;50.960;6.888;2024-03-07T03:59:22;27.03;;;15.27;;
81685;SDS011;71102;50.960;6.888;2024-03-07T04:01:47;23.47;;;14.37;;
81685;SDS011;71102;50.960;6.888;2024-03-07T04:04:12;25.73;;;14.03;;
81685;SDS011;71102;50.960;6.888;2024-03-07T04:06:37;26.03;;;15.57;;
81685;SDS011;71102;50.960;6.888;2024-03-07T04:09:03;26.27;;;15.53;;
81685;SDS011;71102;50.960;6.888;2024-03-07T04:11:28;25.90;;;16.23;;
81685;SDS011;71102;50.960;6.888;2024-03-07T04:13:53;25.37;;;14.80;;
81685;SDS011;71102;50.960;6.888;2024-03-07T04:16:18;26.30;;;15.40;;
81685;SDS011;71102;50.960;6.888;2024-03-07T04:18:43;26.57;;;15.63;;
81685;SDS011;71102;50.960;6.888;2024-03-07T04:21:09;25.83;;;16.03;;
81685;SDS011;71102;50.960;6.888;2024-03-07T04:23:34;26.07;;;15.10;;
81685;SDS011;71102;50.960;6.888;2024-03-07T04:25:59;28.33;;;14.73;;
81685;SDS011;71102;50.960;6.888;2024-03-07T04:28:24;27.80;;;14.63;;
81685;SDS011;71102;50.960;6.888;2024-03-07T04:30:49;30.10;;;16.03;;
81685;SDS011;71102;50.960;6.888;2024-03-07T04:33:14;28.70;;;16.63;;
81685;SDS011;71102;50.960;6.888;2024-03-07T04:35:40;26.67;;;16.77;;
81685;SDS011;71102;50.960;6.888;2024-03-07T04:38:05;28.33;;;14.57;;
81685;SDS011;71102;50.960;6.888;2024-03-07T04:40:30;26.00;;;13.00;;
81685;SDS011;71102;50.960;6.888;2024-03-07T04:42:55;29.50;;;16.70;;
81685;SDS011;71102;50.960;6.888;2024-03-07T04:45:20;25.77;;;14.83;;
81685;SDS011;71102;50.960;6.888;2024-03-07T04:47:46;32.00;;;15.53;;
81685;SDS011;71102;50.960;6.888;2024-03-07T04:50:11;25.60;;;16.30;;
81685;SDS011;71102;50.960;6.888;2024-03-07T04:52:37;28.02;;;15.38;;
81685;SDS011;71102;50.960;6.888;2024-03-07T04:55:02;29.42;;;14.30;;
81685;SDS011;71102;50.960;6.888;2024-03-07T04:57:27;27.27;;;16.57;;
81685;SDS011;71102;50.960;6.888;2024-03-07T04:59:52;28.47;;;15.00;;
81685;SDS011;71102;50.960;6.888;2024-03-07T05:02:18;26.20;;;15.27;;
81685;SDS011;71102;50.960;6.888;2024-03-07T05:04:43;26.17;;;15.67;;
81685;SDS011;71102;50.960;6.888;2024-03-07T05:07:08;26.47;;;13.50;;
81685;SDS011;71102;50.960;6.888;2024-03-07T05:09:33;26.70;;;13.07;;
81685;SDS011;71102;50.960;6.888;2024-03-07T05:11:58;24.73;;;14.17;;
81685;SDS011;71102;50.960;6.888;2024-03-07T05:14:23;27.13;;;13.47;;
81685;SDS011;71102;50.960;6.888;2024-03-07T05:16:49;28.07;;;12.27;;
81685;SDS011;71102;50.960;6.888;2024-03-07T05:19:14;27.37;;;15.57;;
81685;SDS011;71102;50.960;6.888;2024-03-07T05:21:39;26.93;;;16.93;;
81685;SDS011;71102;50.960;6.888;2024-03-07T05:24:04;26.00;;;15.77;;
81685;SDS011;71102;50.960;6.888;2024-03-07T05:26:30;28.45;;;14.63;;
81685;SDS011;71102;50.960;6.888;2024-03-07T05:28:55;22.52;;;13.68;;
81685;SDS011;71102;50.960;6.888;2024-03-07T05:31:20;25.37;;;15.13;;
81685;SDS011;71102;50.960;6.888;2024-03-07T05:33:46;26.17;;;14.33;;
81685;SDS011;71102;50.960;6.888;2024-03-07T05:36:11;28.77;;;18.00;;
81685;SDS011;71102;50.960;6.888;2024-03-07T05:38:36;25.00;;;13.30;;
81685;SDS011;71102;50.960;6.888;2024-03-07T05:41:01;28.47;;;15.60;;
81685;SDS011;71102;50.960;6.888;2024-03-07T05:43:26;24.97;;;14.33;;
81685;SDS011;71102;50.960;6.888;2024-03-07T05:45:51;25.70;;;15.50;;
81685;SDS011;71102;50.960;6.888;2024-03-07T05:48:17;26.87;;;14.83;;
81685;SDS011;71102;50.960;6.888;2024-03-07T05:50:42;23.67;;;12.50;;
81685;SDS011;71102;50.960;6.888;2024-03-07T05:53:07;24.53;;;14.43;;
81685;SDS011;71102;50.960;6.888;2024-03-07T05:55:32;26.60;;;15.07;;
81685;SDS011;71102;50.960;6.888;2024-03-07T05:57:57;25.90;;;14.83;;
81685;SDS011;71102;50.960;6.888;2024-03-07T06:00:23;26.07;;;15.10;;
81685;SDS011;71102;50.960;6.888;2024-03-07T06:02:48;26.47;;;14.57;;
81685;SDS011;71102;50.960;6.888;2024-03-07T06:05:13;25.07;;;20.17;;
81685;SDS011;71102;50.960;6.888;2024-03-07T06:07:38;25.73;;;14.20;;
81685;SDS011;71102;50.960;6.888;2024-03-07T06:10:04;27.77;;;14.47;;
81685;SDS011;71102;50.960;6.888;2024-03-07T06:12:29;23.65;;;15.32;;
81685;SDS011;71102;50.960;6.888;2024-03-07T06:14:54;27.40;;;15.27;;
81685;SDS011;71102;50.960;6.888;2024-03-07T06:17:19;28.47;;;16.93;;
81685;SDS011;71102;50.960;6.888;2024-03-07T06:19:44;27.40;;;16.30;;
81685;SDS011;71102;50.960;6.888;2024-03-07T06:22:10;27.20;;;16.37;;
81685;SDS011;71102;50.960;6.888;2024-03-07T06:24:35;27.10;;;16.40;;
81685;SDS011;71102;50.960;6.888;2024-03-07T06:27:00;26.33;;;16.60;;
81685;SDS011;71102;50.960;6.888;2024-03-07T06:29:25;28.40;;;16.70;;
81685;SDS011;71102;50.960;6.888;2024-03-07T06:31:50;26.83;;;12.57;;
81685;SDS011;71102;50.960;6.888;2024-03-07T06:34:16;26.10;;;15.07;;
81685;SDS011;71102;50.960;6.888;2024-03-07T06:36:41;28.23;;;16.13;;
81685;SDS011;71102;50.960;6.888;2024-03-07T06:39:06;29.93;;;16.63;;
81685;SDS011;71102;50.960;6.888;2024-03-07T06:41:34;31.60;;;15.83;;
81685;SDS011;71102;50.960;6.888;2024-03-07T06:43:59;27.83;;;15.52;;
81685;SDS011;71102;50.960;6.888;2024-03-07T06:46:25;29.90;;;17.57;;
81685;SDS011;71102;50.960;6.888;2024-03-07T06:48:50;26.77;;;16.33;;
81685;SDS011;71102;50.960;6.888;2024-03-07T06:51:15;28.13;;;14.13;;
81685;SDS011;71102;50.960;6.888;2024-03-07T06:53:40;27.13;;;13.97;;
81685;SDS011;71102;50.960;6.888;2024-03-07T06:56:06;28.30;;;15.20;;
81685;SDS011;71102;50.960;6.888;2024-03-07T06:58:31;33.95;;;18.90;;
81685;SDS011;71102;50.960;6.888;2024-03-07T07:00:56;30.87;;;17.77;;
81685;SDS011;71102;50.960;6.888;2024-03-07T07:03:21;30.80;;;18.67;;
81685;SDS011;71102;50.960;6.888;2024-03-07T07:05:47;32.37;;;18.10;;
81685;SDS011;71102;50.960;6.888;2024-03-07T07:08:12;30.43;;;17.23;;
81685;SDS011;71102;50.960;6.888;2024-03-07T07:10:37;29.53;;;16.17;;
81685;SDS011;71102;50.960;6.888;2024-03-07T07:13:02;32.60;;;17.80;;
81685;SDS011;71102;50.960;6.888;2024-03-07T07:15:27;30.27;;;18.10;;
81685;SDS011;71102;50.960;6.888;2024-03-07T07:17:53;27.83;;;16.80;;
81685;SDS011;71102;50.960;6.888;2024-03-07T07:20:18;27.40;;;17.70;;
81685;SDS011;71102;50.960;6.888;2024-03-07T07:22:44;30.77;;;17.10;;
81685;SDS011;71102;50.960;6.888;2024-03-07T07:25:10;29.27;;;18.88;;
81685;SDS011;71102;50.960;6.888;2024-03-07T07:27:35;25.30;;;14.70;;
81685;SDS011;71102;50.960;6.888;2024-03-07T07:30:00;26.93;;;16.33;;
81685;SDS011;71102;50.960;6.888;2024-03-07T07:32:25;26.23;;;16.87;;
81685;SDS011;71102;50.960;6.888;2024-03-07T07:34:50;29.33;;;19.03;;
81685;SDS011;71102;50.960;6.888;2024-03-07T07:37:16;28.00;;;17.27;;
81685;SDS011;71102;50.960;6.888;2024-03-07T07:39:41;27.93;;;16.63;;
81685;SDS011;71102;50.960;6.888;2024-03-07T07:42:06;31.37;;;18.03;;
81685;SDS011;71102;50.960;6.888;2024-03-07T07:44:31;28.63;;;17.03;;
81685;SDS011;71102;50.960;6.888;2024-03-07T07:46:56;27.37;;;16.30;;
81685;SDS011;71102;50.960;6.888;2024-03-07T07:49:22;26.60;;;13.27;;
81685;SDS011;71102;50.960;6.888;2024-03-07T07:51:47;30.50;;;16.40;;
81685;SDS011;71102;50.960;6.888;2024-03-07T07:54:12;27.73;;;15.80;;
81685;SDS011;71102;50.960;6.888;2024-03-07T07:56:37;29.73;;;17.57;;
81685;SDS011;71102;50.960;6.888;2024-03-07T07:59:02;29.17;;;16.53;;
81685;SDS011;71102;50.960;6.888;2024-03-07T08:01:28;25.77;;;15.30;;
81685;SDS011;71102;50.960;6.888;2024-03-07T08:03:53;25.70;;;13.60;;
81685;SDS011;71102;50.960;6.888;2024-03-07T08:06:18;24.97;;;15.27;;
81685;SDS011;71102;50.960;6.888;2024-03-07T08:08:43;22.97;;;13.30;;
81685;SDS011;71102;50.960;6.888;2024-03-07T08:11:08;26.13;;;14.23;;
81685;SDS011;71102;50.960;6.888;2024-03-07T08:13:34;23.70;;;15.17;;
81685;SDS011;71102;50.960;6.888;2024-03-07T08:15:59;24.17;;;14.57;;
81685;SDS011;71102;50.960;6.888;2024-03-07T08:18:24;20.63;;;11.93;;
81685;SDS011;71102;50.960;6.888;2024-03-07T08:20:49;25.50;;;15.97;;
81685;SDS011;71102;50.960;6.888;2024-03-07T08:23:14;26.00;;;14.90;;
81685;SDS011;71102;50.960;6.888;2024-03-07T08:25:39;25.43;;;14.97;;
81685;SDS011;71102;50.960;6.888;2024-03-07T08:28:05;22.20;;;13.50;;
81685;SDS011;71102;50.960;6.888;2024-03-07T08:30:30;23.90;;;12.40;;
81685;SDS011;71102;50.960;6.888;2024-03-07T08:32:55;20.50;;;10.87;;
81685;SDS011;71102;50.960;6.888;2024-03-07T08:35:21;22.00;;;12.90;;
81685;SDS011;71102;50.960;6.888;2024-03-07T08:37:47;17.60;;;11.00;;
81685;SDS011;71102;50.960;6.888;2024-03-07T08:40:12;23.75;;;14.70;;
81685;SDS011;71102;50.960;6.888;2024-03-07T08:42:38;21.07;;;12.13;;
81685;SDS011;71102;50.960;6.888;2024-03-07T08:45:04;19.40;;;12.40;;
81685;SDS011;71102;50.960;6.888;2024-03-07T08:47:30;20.05;;;10.93;;
81685;SDS011;71102;50.960;6.888;2024-03-07T08:49:55;21.85;;;12.52;;
81685;SDS011;71102;50.960;6.888;2024-03-07T08:52:20;22.40;;;11.67;;
81685;SDS011;71102;50.960;6.888;2024-03-07T08:54:45;20.53;;;12.87;;
81685;SDS011;71102;50.960;6.888;2024-03-07T08:57:10;20.80;;;12.73;;
81685;SDS011;71102;50.960;6.888;2024-03-07T08:59:36;23.17;;;12.07;;
81685;SDS011;71102;50.960;6.888;2024-03-07T09:02:01;21.53;;;12.30;;
81685;SDS011;71102;50.960;6.888;2024-03-07T09:04:26;16.50;;;9.67;;
81685;SDS011;71102;50.960;6.888;2024-03-07T09:06:51;20.13;;;12.17;;
81685;SDS011;71102;50.960;6.888;2024-03-07T09:09:16;20.73;;;12.03;;
81685;SDS011;71102;50.960;6.888;2024-03-07T09:11:42;20.10;;;11.50;;
81685;SDS011;71102;50.960;6.888;2024-03-07T09:14:07;20.27;;;10.83;;
81685;SDS011;71102;50.960;6.888;2024-03-07T09:16:32;20.37;;;13.10;;
81685;SDS011;71102;50.960;6.888;2024-03-07T09:18:57;19.50;;;11.23;;
81685;SDS011;71102;50.960;6.888;2024-03-07T09:21:22;19.00;;;11.47;;
81685;SDS011;71102;50.960;6.888;2024-03-07T09:23:48;19.63;;;11.73;;
81685;SDS011;71102;50.960;6.888;2024-03-07T09:26:13;19.77;;;10.63;;
81685;SDS011;71102;50.960;6.888;2024-03-07T09:28:38;19.33;;;12.57;;
81685;SDS011;71102;50.960;6.888;2024-03-07T09:31:03;20.87;;;11.60;;
81685;SDS011;71102;50.960;6.888;2024-03-07T09:33:28;22.10;;;11.73;;
81685;SDS011;71102;50.960;6.888;2024-03-07T09:35:54;19.03;;;11.10;;
81685;SDS011;71102;50.960;6.888;2024-03-07T09:38:19;18.97;;;12.10;;
81685;SDS011;71102;50.960;6.888;2024-03-07T09:40:46;19.67;;;12.17;;
81685;SDS011;71102;50.960;6.888;2024-03-07T09:43:11;21.08;;;12.63;;
81685;SDS011;71102;50.960;6.888;2024-03-07T09:45:37;18.38;;;12.48;;
81685;SDS011;71102;50.960;6.888;2024-03-07T09:48:03;18.88;;;13.20;;
81685;SDS011;71102;50.960;6.888;2024-03-07T09:50:29;17.10;;;8.38;;
81685;SDS011;71102;50.960;6.888;2024-03-07T09:52:54;21.15;;;9.95;;
81685;SDS011;71102;50.960;6.888;2024-03-07T09:55:20;15.75;;;9.23;;
81685;SDS011;71102;50.960;6.888;2024-03-07T09:57:46;18.10;;;10.07;;
81685;SDS011;71102;50.960;6.888;2024-03-07T10:00:11;20.30;;;11.90;;
81685;SDS011;71102;50.960;6.888;2024-03-07T10:02:39;18.83;;;12.25;;
81685;SDS011;71102;50.960;6.888;2024-03-07T10:05:05;21.27;;;12.68;;
81685;SDS011;71102;50.960;6.888;2024-03-07T10:07:32;17.42;;;10.30;;
81685;SDS011;71102;50.960;6.888;2024-03-07T10:09:57;21.37;;;12.43;;
81685;SDS011;71102;50.960;6.888;2024-03-07T10:12:23;18.67;;;12.30;;
81685;SDS011;71102;50.960;6.888;2024-03-07T10:14:48;19.30;;;11.00;;
81685;SDS011;71102;50.960;6.888;2024-03-07T10:17:13;21.83;;;13.27;;
81685;SDS011;71102;50.960;6.888;2024-03-07T10:19:40;19.37;;;12.57;;
81685;SDS011;71102;50.960;6.888;2024-03-07T10:22:05;18.73;;;11.77;;
81685;SDS011;71102;50.960;6.888;2024-03-07T10:24:30;18.13;;;9.67;;
81685;SDS011;71102;50.960;6.888;2024-03-07T10:26:56;18.93;;;11.57;;
81685;SDS011;71102;50.960;6.888;2024-03-07T10:29:21;21.37;;;11.37;;
81685;SDS011;71102;50.960;6.888;2024-03-07T10:31:47;23.58;;;14.20;;
81685;SDS011;71102;50.960;6.888;2024-03-07T10:34:12;20.23;;;12.40;;
81685;SDS011;71102;50.960;6.888;2024-03-07T10:36:37;19.80;;;10.43;;
81685;SDS011;71102;50.960;6.888;2024-03-07T10:39:02;19.30;;;12.10;;
81685;SDS011;71102;50.960;6.888;2024-03-07T10:41:28;19.87;;;12.30;;
81685;SDS011;71102;50.960;6.888;2024-03-07T10:43:54;20.73;;;12.15;;
81685;SDS011;71102;50.960;6.888;2024-03-07T10:46:20;19.63;;;13.15;;
81685;SDS011;71102;50.960;6.888;2024-03-07T10:48:46;20.27;;;11.07;;
81685;SDS011;71102;50.960;6.888;2024-03-07T10:51:18;21.00;;;12.45;;
81685;SDS011;71102;50.960;6.888;2024-03-07T10:57:05;22.38;;;12.05;;
81685;SDS011;71102;50.960;6.888;2024-03-07T10:59:11;19.48;;;10.32;;
81685;SDS011;71102;50.960;6.888;2024-03-07T11:02:03;18.98;;;10.45;;
81685;SDS011;71102;50.960;6.888;2024-03-07T11:04:29;18.70;;;10.80;;
81685;SDS011;71102;50.960;6.888;2024-03-07T11:06:55;19.70;;;10.90;;
81685;SDS011;71102;50.960;6.888;2024-03-07T11:09:20;17.38;;;8.43;;
81685;SDS011;71102;50.960;6.888;2024-03-07T11:11:45;18.30;;;11.75;;
81685;SDS011;71102;50.960;6.888;2024-03-07T11:14:11;20.08;;;9.52;;
81685;SDS011;71102;50.960;6.888;2024-03-07T11:16:37;19.90;;;11.10;;
81685;SDS011;71102;50.960;6.888;2024-03-07T11:21:44;20.02;;;11.88;;
81685;SDS011;71102;50.960;6.888;2024-03-07T11:24:09;19.17;;;11.93;;
81685;SDS011;71102;50.960;6.888;2024-03-07T11:26:34;17.80;;;8.83;;
81685;SDS011;71102;50.960;6.888;2024-03-07T11:28:59;16.37;;;9.03;;
81685;SDS011;71102;50.960;6.888;2024-03-07T11:31:25;18.77;;;11.47;;
81685;SDS011;71102;50.960;6.888;2024-03-07T11:36:44;15.00;;;10.20;;
81685;SDS011;71102;50.960;6.888;2024-03-07T11:39:38;19.52;;;10.70;;
81685;SDS011;71102;50.960;6.888;2024-03-07T11:41:54;18.58;;;11.50;;
81685;SDS011;71102;50.960;6.888;2024-03-07T11:44:19;18.90;;;12.00;;
81685;SDS011;71102;50.960;6.888;2024-03-07T11:46:45;16.90;;;11.10;;
81685;SDS011;71102;50.960;6.888;2024-03-07T11:49:10;19.40;;;12.07;;
81685;SDS011;71102;50.960;6.888;2024-03-07T11:51:35;19.37;;;12.17;;
81685;SDS011;71102;50.960;6.888;2024-03-07T11:54:00;19.50;;;11.40;;
81685;SDS011;71102;50.960;6.888;2024-03-07T11:56:25;21.17;;;12.60;;
81685;SDS011;71102;50.960;6.888;2024-03-07T11:58:51;19.60;;;12.83;;
81685;SDS011;71102;50.960;6.888;2024-03-07T12:01:16;20.90;;;12.77;;
81685;SDS011;71102;50.960;6.888;2024-03-07T12:03:41;22.03;;;12.47;;
81685;SDS011;71102;50.960;6.888;2024-03-07T12:06:07;17.00;;;11.33;;
81685;SDS011;71102;50.960;6.888;2024-03-07T12:08:33;19.42;;;11.02;;
81685;SDS011;71102;50.960;6.888;2024-03-07T12:10:58;18.13;;;11.53;;
81685;SDS011;71102;50.960;6.888;2024-03-07T12:13:23;18.92;;;13.00;;
81685;SDS011;71102;50.960;6.888;2024-03-07T12:15:49;19.87;;;11.23;;
81685;SDS011;71102;50.960;6.888;2024-03-07T12:18:14;17.03;;;10.30;;
81685;SDS011;71102;50.960;6.888;2024-03-07T12:20:40;16.90;;;11.27;;
81685;SDS011;71102;50.960;6.888;2024-03-07T12:23:05;20.02;;;11.25;;
81685;SDS011;71102;50.960;6.888;2024-03-07T12:25:31;16.90;;;11.18;;
81685;SDS011;71102;50.960;6.888;2024-03-07T12:28:03;17.05;;;11.40;;
81685;SDS011;71102;50.960;6.888;2024-03-07T12:30:32;15.00;;;10.00;;
81685;SDS011;71102;50.960;6.888;2024-03-07T12:35:22;16.00;;;9.85;;
81685;SDS011;71102;50.960;6.888;2024-03-07T12:37:48;18.73;;;10.38;;
81685;SDS011;71102;50.960;6.888;2024-03-07T12:40:13;17.23;;;10.53;;
81685;SDS011;71102;50.960;6.888;2024-03-07T12:42:38;17.30;;;10.97;;
81685;SDS011;71102;50.960;6.888;2024-03-07T12:45:05;15.23;;;9.67;;
81685;SDS011;71102;50.960;6.888;2024-03-07T12:47:30;17.25;;;10.48;;
81685;SDS011;71102;50.960;6.888;2024-03-07T12:49:55;16.97;;;9.97;;
81685;SDS011;71102;50.960;6.888;2024-03-07T12:52:20;14.97;;;10.87;;
81685;SDS011;71102;50.960;6.888;2024-03-07T12:54:46;14.63;;;11.27;;
81685;SDS011;71102;50.960;6.888;2024-03-07T12:57:11;14.37;;;8.70;;
81685;SDS011;71102;50.960;6.888;2024-03-07T12:59:39;13.87;;;8.93;;
81685;SDS011;71102;50.960;6.888;2024-03-07T13:02:04;13.80;;;9.25;;
81685;SDS011;71102;50.960;6.888;2024-03-07T13:04:30;13.70;;;8.87;;
81685;SDS011;71102;50.960;6.888;2024-03-07T13:06:55;13.83;;;9.03;;
81685;SDS011;71102;50.960;6.888;2024-03-07T13:09:20;15.00;;;8.73;;
81685;SDS011;71102;50.960;6.888;2024-03-07T13:11:45;12.70;;;8.63;;
81685;SDS011;71102;50.960;6.888;2024-03-07T13:14:10;15.50;;;8.60;;
81685;SDS011;71102;50.960;6.888;2024-03-07T13:16:36;14.17;;;9.23;;
81685;SDS011;71102;50.960;6.888;2024-03-07T13:19:01;14.83;;;8.80;;
81685;SDS011;71102;50.960;6.888;2024-03-07T13:21:26;12.37;;;8.03;;
81685;SDS011;71102;50.960;6.888;2024-03-07T13:23:51;12.53;;;6.43;;
81685;SDS011;71102;50.960;6.888;2024-03-07T13:26:17;13.77;;;8.13;;
81685;SDS011;71102;50.960;6.888;2024-03-07T13:28:42;14.15;;;8.70;;
81685;SDS011;71102;50.960;6.888;2024-03-07T13:31:08;14.13;;;8.27;;
81685;SDS011;71102;50.960;6.888;2024-03-07T13:33:33;14.67;;;8.87;;
81685;SDS011;71102;50.960;6.888;2024-03-07T13:35:58;16.20;;;10.53;;
81685;SDS011;71102;50.960;6.888;2024-03-07T13:38:23;15.73;;;9.17;;
81685;SDS011;71102;50.960;6.888;2024-03-07T13:40:49;15.13;;;10.73;;
81685;SDS011;71102;50.960;6.888;2024-03-07T13:43:14;13.77;;;9.03;;
81685;SDS011;71102;50.960;6.888;2024-03-07T13:45:39;16.50;;;9.90;;
81685;SDS011;71102;50.960;6.888;2024-03-07T13:48:05;16.23;;;10.80;;
81685;SDS011;71102;50.960;6.888;2024-03-07T13:50:31;16.42;;;12.98;;
81685;SDS011;71102;50.960;6.888;2024-03-07T13:52:57;12.70;;;7.65;;
81685;SDS011;71102;50.960;6.888;2024-03-07T13:55:22;16.83;;;9.57;;
81685;SDS011;71102;50.960;6.888;2024-03-07T13:57:49;12.80;;;8.03;;
81685;SDS011;71102;50.960;6.888;2024-03-07T14:11:08;11.77;;;7.10;;
81685;SDS011;71102;50.960;6.888;2024-03-07T14:13:46;13.10;;;8.05;;
81685;SDS011;71102;50.960;6.888;2024-03-07T14:16:21;12.30;;;8.20;;
81685;SDS011;71102;50.960;6.888;2024-03-07T14:32:18;11.27;;;6.93;;
81685;SDS011;71102;50.960;6.888;2024-03-07T14:38:02;12.82;;;7.95;;
81685;SDS011;71102;50.960;6.888;2024-03-07T14:40:08;11.63;;;6.85;;
81685;SDS011;71102;50.960;6.888;2024-03-07T14:42:33;11.50;;;7.25;;
81685;SDS011;71102;50.960;6.888;2024-03-07T14:44:59;14.60;;;8.13;;
81685;SDS011;71102;50.960;6.888;2024-03-07T14:47:24;12.02;;;7.88;;
81685;SDS011;71102;50.960;6.888;2024-03-07T14:49:49;11.53;;;7.50;;
81685;SDS011;71102;50.960;6.888;2024-03-07T14:52:15;12.27;;;7.60;;